sensor_id;sensor_type;location;lat;lon;timestamp;P1;durP1;ratioP1;P2;durP2;ratioP2
75628;SDS011;64213;46.452;16.994;2023-06-22T00:02:19;8.25;;;2.33;;
75628;SDS011;64213;46.452;16.994;2023-06-22T00:05:21;10.05;;;2.12;;
75628;SDS011;64213;46.452;16.994;2023-06-22T00:08:23;10.70;;;2.40;;
75628;SDS011;64213;46.452;16.994;2023-06-22T00:11:26;8.13;;;2.27;;
75628;SDS011;64213;46.452;16.994;2023-06-22T00:14:29;11.02;;;2.17;;
75628;SDS011;64213;46.452;16.994;2023-06-22T00:17:31;9.38;;;2.42;;
75628;SDS011;64213;46.452;16.994;2023-06-22T00:20:34;11.15;;;2.70;;
75628;SDS011;64213;46.452;16.994;2023-06-22T00:23:38;9.95;;;2.70;;
75628;SDS011;64213;46.452;16.994;2023-06-22T00:26:41;7.50;;;2.47;;
75628;SDS011;64213;46.452;16.994;2023-06-22T00:29:43;9.82;;;2.40;;
75628;SDS011;64213;46.452;16.994;2023-06-22T00:32:45;11.63;;;2.72;;
75628;SDS011;64213;46.452;16.994;2023-06-22T00:35:47;13.75;;;2.60;;
75628;SDS011;64213;46.452;16.994;2023-06-22T00:38:50;9.07;;;2.25;;
75628;SDS011;64213;46.452;16.994;2023-06-22T00:41:52;11.50;;;2.33;;
75628;SDS011;64213;46.452;16.994;2023-06-22T00:44:54;8.02;;;2.50;;
75628;SDS011;64213;46.452;16.994;2023-06-22T00:47:57;9.30;;;2.30;;
75628;SDS011;64213;46.452;16.994;2023-06-22T00:51:00;9.63;;;2.90;;
75628;SDS011;64213;46.452;16.994;2023-06-22T00:54:02;12.00;;;3.22;;
75628;SDS011;64213;46.452;16.994;2023-06-22T00:57:05;11.97;;;2.33;;
75628;SDS011;64213;46.452;16.994;2023-06-22T01:00:13;12.20;;;2.60;;
75628;SDS011;64213;46.452;16.994;2023-06-22T01:03:19;10.00;;;2.45;;
75628;SDS011;64213;46.452;16.994;2023-06-22T01:06:25;10.43;;;2.47;;
75628;SDS011;64213;46.452;16.994;2023-06-22T01:09:32;10.40;;;3.12;;
75628;SDS011;64213;46.452;16.994;2023-06-22T01:12:44;11.17;;;2.90;;
75628;SDS011;64213;46.452;16.994;2023-06-22T01:15:51;10.00;;;2.67;;
75628;SDS011;64213;46.452;16.994;2023-06-22T01:19:00;10.52;;;2.90;;
75628;SDS011;64213;46.452;16.994;2023-06-22T01:22:18;9.07;;;2.53;;
75628;SDS011;64213;46.452;16.994;2023-06-22T01:25:28;10.45;;;3.55;;
75628;SDS011;64213;46.452;16.994;2023-06-22T01:28:48;10.20;;;3.50;;
75628;SDS011;64213;46.452;16.994;2023-06-22T01:31:52;9.57;;;3.25;;
75628;SDS011;64213;46.452;16.994;2023-06-22T01:34:56;12.13;;;4.18;;
75628;SDS011;64213;46.452;16.994;2023-06-22T01:38:00;10.57;;;5.10;;
75628;SDS011;64213;46.452;16.994;2023-06-22T01:41:03;12.70;;;4.50;;
75628;SDS011;64213;46.452;16.994;2023-06-22T01:44:06;12.63;;;4.57;;
75628;SDS011;64213;46.452;16.994;2023-06-22T01:47:09;11.40;;;4.25;;
75628;SDS011;64213;46.452;16.994;2023-06-22T01:50:12;13.25;;;3.10;;
75628;SDS011;64213;46.452;16.994;2023-06-22T01:53:14;11.63;;;2.90;;
75628;SDS011;64213;46.452;16.994;2023-06-22T01:56:17;11.35;;;3.03;;
75628;SDS011;64213;46.452;16.994;2023-06-22T02:02:42;11.02;;;3.22;;
75628;SDS011;64213;46.452;16.994;2023-06-22T02:05:55;11.52;;;4.03;;
75628;SDS011;64213;46.452;16.994;2023-06-22T02:09:06;12.75;;;3.55;;
75628;SDS011;64213;46.452;16.994;2023-06-22T02:12:12;12.63;;;4.03;;
75628;SDS011;64213;46.452;16.994;2023-06-22T02:15:15;18.17;;;4.70;;
75628;SDS011;64213;46.452;16.994;2023-06-22T02:18:18;15.10;;;4.97;;
75628;SDS011;64213;46.452;16.994;2023-06-22T02:21:21;14.35;;;5.53;;
75628;SDS011;64213;46.452;16.994;2023-06-22T02:24:25;14.90;;;6.78;;
75628;SDS011;64213;46.452;16.994;2023-06-22T02:27:27;16.25;;;6.93;;
75628;SDS011;64213;46.452;16.994;2023-06-22T02:30:30;16.67;;;6.50;;
75628;SDS011;64213;46.452;16.994;2023-06-22T02:33:32;16.58;;;6.37;;
75628;SDS011;64213;46.452;16.994;2023-06-22T02:40:12;20.37;;;6.80;;
75628;SDS011;64213;46.452;16.994;2023-06-22T02:43:15;16.15;;;7.07;;
75628;SDS011;64213;46.452;16.994;2023-06-22T02:46:17;17.30;;;7.10;;
75628;SDS011;64213;46.452;16.994;2023-06-22T02:49:19;16.27;;;6.57;;
75628;SDS011;64213;46.452;16.994;2023-06-22T02:52:22;17.55;;;7.03;;
75628;SDS011;64213;46.452;16.994;2023-06-22T02:55:24;13.85;;;6.50;;
75628;SDS011;64213;46.452;16.994;2023-06-22T02:58:26;15.98;;;6.85;;
75628;SDS011;64213;46.452;16.994;2023-06-22T03:01:29;20.30;;;6.97;;
75628;SDS011;64213;46.452;16.994;2023-06-22T03:04:42;17.02;;;7.28;;
75628;SDS011;64213;46.452;16.994;2023-06-22T03:07:44;16.02;;;6.60;;
75628;SDS011;64213;46.452;16.994;2023-06-22T03:10:47;19.33;;;6.97;;
75628;SDS011;64213;46.452;16.994;2023-06-22T03:13:49;18.40;;;6.97;;
75628;SDS011;64213;46.452;16.994;2023-06-22T03:16:53;17.13;;;6.93;;
75628;SDS011;64213;46.452;16.994;2023-06-22T03:19:56;16.23;;;6.90;;
75628;SDS011;64213;46.452;16.994;2023-06-22T03:22:58;18.65;;;7.57;;
75628;SDS011;64213;46.452;16.994;2023-06-22T03:26:00;18.50;;;6.75;;
75628;SDS011;64213;46.452;16.994;2023-06-22T03:29:03;18.00;;;6.78;;
75628;SDS011;64213;46.452;16.994;2023-06-22T03:32:05;18.07;;;7.13;;
75628;SDS011;64213;46.452;16.994;2023-06-22T03:35:08;18.90;;;7.53;;
75628;SDS011;64213;46.452;16.994;2023-06-22T03:38:11;18.70;;;8.18;;
75628;SDS011;64213;46.452;16.994;2023-06-22T03:41:13;16.70;;;7.45;;
75628;SDS011;64213;46.452;16.994;2023-06-22T03:44:15;22.13;;;8.90;;
75628;SDS011;64213;46.452;16.994;2023-06-22T03:47:17;15.80;;;8.37;;
75628;SDS011;64213;46.452;16.994;2023-06-22T03:50:20;17.33;;;8.32;;
75628;SDS011;64213;46.452;16.994;2023-06-22T03:53:22;18.65;;;9.02;;
75628;SDS011;64213;46.452;16.994;2023-06-22T03:56:24;20.90;;;8.70;;
75628;SDS011;64213;46.452;16.994;2023-06-22T03:59:26;20.15;;;8.20;;
75628;SDS011;64213;46.452;16.994;2023-06-22T04:02:28;19.87;;;8.57;;
75628;SDS011;64213;46.452;16.994;2023-06-22T04:05:31;18.00;;;8.52;;
75628;SDS011;64213;46.452;16.994;2023-06-22T04:08:33;18.67;;;7.80;;
75628;SDS011;64213;46.452;16.994;2023-06-22T04:11:35;17.62;;;7.47;;
75628;SDS011;64213;46.452;16.994;2023-06-22T04:14:37;17.62;;;7.68;;
75628;SDS011;64213;46.452;16.994;2023-06-22T04:17:39;14.60;;;7.47;;
75628;SDS011;64213;46.452;16.994;2023-06-22T04:20:42;14.70;;;7.15;;
75628;SDS011;64213;46.452;16.994;2023-06-22T04:23:44;15.18;;;7.28;;
75628;SDS011;64213;46.452;16.994;2023-06-22T04:26:47;17.10;;;7.40;;
75628;SDS011;64213;46.452;16.994;2023-06-22T04:29:49;15.85;;;7.32;;
75628;SDS011;64213;46.452;16.994;2023-06-22T04:32:53;18.13;;;7.40;;
75628;SDS011;64213;46.452;16.994;2023-06-22T04:35:59;16.15;;;7.05;;
75628;SDS011;64213;46.452;16.994;2023-06-22T04:39:06;16.08;;;7.15;;
75628;SDS011;64213;46.452;16.994;2023-06-22T04:42:12;19.02;;;7.05;;
75628;SDS011;64213;46.452;16.994;2023-06-22T04:45:14;30.23;;;22.40;;
75628;SDS011;64213;46.452;16.994;2023-06-22T04:48:16;17.03;;;7.87;;
75628;SDS011;64213;46.452;16.994;2023-06-22T04:51:18;15.55;;;6.80;;
75628;SDS011;64213;46.452;16.994;2023-06-22T04:54:23;15.95;;;6.93;;
75628;SDS011;64213;46.452;16.994;2023-06-22T04:57:25;15.65;;;6.62;;
75628;SDS011;64213;46.452;16.994;2023-06-22T05:00:34;18.52;;;7.22;;
75628;SDS011;64213;46.452;16.994;2023-06-22T05:03:38;17.93;;;7.00;;
75628;SDS011;64213;46.452;16.994;2023-06-22T05:06:44;16.40;;;6.85;;
75628;SDS011;64213;46.452;16.994;2023-06-22T05:09:47;17.48;;;6.45;;
75628;SDS011;64213;46.452;16.994;2023-06-22T05:12:49;16.23;;;6.05;;
75628;SDS011;64213;46.452;16.994;2023-06-22T05:15:51;15.15;;;6.90;;
75628;SDS011;64213;46.452;16.994;2023-06-22T05:18:54;15.20;;;6.60;;
75628;SDS011;64213;46.452;16.994;2023-06-22T05:21:57;17.45;;;6.43;;
75628;SDS011;64213;46.452;16.994;2023-06-22T05:24:59;15.88;;;6.78;;
75628;SDS011;64213;46.452;16.994;2023-06-22T05:28:01;17.02;;;6.32;;
75628;SDS011;64213;46.452;16.994;2023-06-22T05:31:05;13.77;;;6.62;;
75628;SDS011;64213;46.452;16.994;2023-06-22T05:34:07;16.20;;;6.40;;
75628;SDS011;64213;46.452;16.994;2023-06-22T05:37:09;15.60;;;6.43;;
75628;SDS011;64213;46.452;16.994;2023-06-22T05:40:12;16.70;;;6.53;;
75628;SDS011;64213;46.452;16.994;2023-06-22T05:43:14;15.10;;;6.65;;
75628;SDS011;64213;46.452;16.994;2023-06-22T05:46:17;17.58;;;7.18;;
75628;SDS011;64213;46.452;16.994;2023-06-22T05:49:20;18.23;;;7.07;;
75628;SDS011;64213;46.452;16.994;2023-06-22T05:52:24;17.02;;;7.20;;
75628;SDS011;64213;46.452;16.994;2023-06-22T05:55:26;17.55;;;8.00;;
75628;SDS011;64213;46.452;16.994;2023-06-22T05:58:28;16.05;;;7.10;;
75628;SDS011;64213;46.452;16.994;2023-06-22T06:01:30;16.40;;;6.97;;
75628;SDS011;64213;46.452;16.994;2023-06-22T06:04:36;16.80;;;6.87;;
75628;SDS011;64213;46.452;16.994;2023-06-22T06:07:39;16.30;;;7.15;;
75628;SDS011;64213;46.452;16.994;2023-06-22T06:10:41;17.37;;;7.18;;
75628;SDS011;64213;46.452;16.994;2023-06-22T06:13:43;15.00;;;7.68;;
75628;SDS011;64213;46.452;16.994;2023-06-22T06:16:48;18.20;;;8.13;;
75628;SDS011;64213;46.452;16.994;2023-06-22T06:19:51;15.40;;;8.40;;
75628;SDS011;64213;46.452;16.994;2023-06-22T06:22:53;17.45;;;7.43;;
75628;SDS011;64213;46.452;16.994;2023-06-22T06:25:55;19.95;;;7.35;;
75628;SDS011;64213;46.452;16.994;2023-06-22T06:28:58;16.70;;;7.22;;
75628;SDS011;64213;46.452;16.994;2023-06-22T06:32:02;16.70;;;7.53;;
75628;SDS011;64213;46.452;16.994;2023-06-22T06:35:05;15.13;;;7.27;;
75628;SDS011;64213;46.452;16.994;2023-06-22T06:38:08;16.83;;;7.32;;
75628;SDS011;64213;46.452;16.994;2023-06-22T06:41:10;14.87;;;7.07;;
75628;SDS011;64213;46.452;16.994;2023-06-22T06:44:12;19.52;;;7.07;;
75628;SDS011;64213;46.452;16.994;2023-06-22T06:47:15;13.55;;;7.40;;
75628;SDS011;64213;46.452;16.994;2023-06-22T06:50:18;17.07;;;7.80;;
75628;SDS011;64213;46.452;16.994;2023-06-22T06:53:21;16.02;;;7.87;;
75628;SDS011;64213;46.452;16.994;2023-06-22T06:56:23;18.20;;;8.40;;
75628;SDS011;64213;46.452;16.994;2023-06-22T06:59:25;16.83;;;7.70;;
75628;SDS011;64213;46.452;16.994;2023-06-22T07:02:27;15.63;;;8.45;;
75628;SDS011;64213;46.452;16.994;2023-06-22T07:05:30;15.43;;;7.73;;
75628;SDS011;64213;46.452;16.994;2023-06-22T07:08:33;17.33;;;8.25;;
75628;SDS011;64213;46.452;16.994;2023-06-22T07:11:36;16.23;;;8.23;;
75628;SDS011;64213;46.452;16.994;2023-06-22T07:14:39;15.10;;;7.55;;
75628;SDS011;64213;46.452;16.994;2023-06-22T07:17:41;17.77;;;8.23;;
75628;SDS011;64213;46.452;16.994;2023-06-22T07:20:43;17.20;;;8.43;;
75628;SDS011;64213;46.452;16.994;2023-06-22T07:23:46;17.77;;;8.70;;
75628;SDS011;64213;46.452;16.994;2023-06-22T07:26:48;15.25;;;8.50;;
75628;SDS011;64213;46.452;16.994;2023-06-22T07:29:51;19.80;;;9.40;;
75628;SDS011;64213;46.452;16.994;2023-06-22T07:32:54;17.95;;;8.93;;
75628;SDS011;64213;46.452;16.994;2023-06-22T07:35:56;15.20;;;8.23;;
75628;SDS011;64213;46.452;16.994;2023-06-22T07:38:59;16.65;;;8.73;;
75628;SDS011;64213;46.452;16.994;2023-06-22T07:42:01;16.33;;;8.77;;
75628;SDS011;64213;46.452;16.994;2023-06-22T07:45:03;19.33;;;9.13;;
75628;SDS011;64213;46.452;16.994;2023-06-22T07:48:06;16.77;;;9.63;;
75628;SDS011;64213;46.452;16.994;2023-06-22T07:51:09;16.83;;;9.63;;
75628;SDS011;64213;46.452;16.994;2023-06-22T07:54:14;17.00;;;9.02;;
75628;SDS011;64213;46.452;16.994;2023-06-22T07:57:18;20.00;;;9.90;;
75628;SDS011;64213;46.452;16.994;2023-06-22T08:00:21;17.55;;;9.45;;
75628;SDS011;64213;46.452;16.994;2023-06-22T08:03:23;21.42;;;10.48;;
75628;SDS011;64213;46.452;16.994;2023-06-22T08:06:25;14.93;;;10.53;;
75628;SDS011;64213;46.452;16.994;2023-06-22T08:09:28;19.37;;;10.23;;
75628;SDS011;64213;46.452;16.994;2023-06-22T08:12:32;18.10;;;9.95;;
75628;SDS011;64213;46.452;16.994;2023-06-22T08:15:34;17.98;;;10.93;;
75628;SDS011;64213;46.452;16.994;2023-06-22T08:18:36;17.73;;;10.65;;
75628;SDS011;64213;46.452;16.994;2023-06-22T08:21:38;20.23;;;10.37;;
75628;SDS011;64213;46.452;16.994;2023-06-22T08:24:41;19.17;;;10.70;;
75628;SDS011;64213;46.452;16.994;2023-06-22T08:27:46;18.87;;;10.93;;
75628;SDS011;64213;46.452;16.994;2023-06-22T08:30:50;19.30;;;10.63;;
75628;SDS011;64213;46.452;16.994;2023-06-22T08:33:52;20.23;;;11.93;;
75628;SDS011;64213;46.452;16.994;2023-06-22T08:36:54;15.67;;;11.00;;
75628;SDS011;64213;46.452;16.994;2023-06-22T08:39:58;19.73;;;11.45;;
75628;SDS011;64213;46.452;16.994;2023-06-22T08:43:01;17.55;;;11.32;;
75628;SDS011;64213;46.452;16.994;2023-06-22T08:46:03;20.08;;;12.30;;
75628;SDS011;64213;46.452;16.994;2023-06-22T08:49:06;17.77;;;11.68;;
75628;SDS011;64213;46.452;16.994;2023-06-22T08:52:08;19.17;;;11.90;;
75628;SDS011;64213;46.452;16.994;2023-06-22T08:55:10;17.77;;;11.57;;
75628;SDS011;64213;46.452;16.994;2023-06-22T08:58:13;18.70;;;12.23;;
75628;SDS011;64213;46.452;16.994;2023-06-22T09:01:15;17.65;;;11.43;;
75628;SDS011;64213;46.452;16.994;2023-06-22T09:04:17;22.85;;;12.88;;
75628;SDS011;64213;46.452;16.994;2023-06-22T09:07:20;17.20;;;12.37;;
75628;SDS011;64213;46.452;16.994;2023-06-22T09:10:24;21.95;;;11.82;;
75628;SDS011;64213;46.452;16.994;2023-06-22T09:13:30;17.08;;;11.70;;
75628;SDS011;64213;46.452;16.994;2023-06-22T09:16:33;19.70;;;12.18;;
75628;SDS011;64213;46.452;16.994;2023-06-22T09:19:36;18.30;;;12.23;;
75628;SDS011;64213;46.452;16.994;2023-06-22T09:22:38;17.67;;;11.53;;
75628;SDS011;64213;46.452;16.994;2023-06-22T09:25:40;18.40;;;12.10;;
75628;SDS011;64213;46.452;16.994;2023-06-22T09:28:43;19.12;;;12.48;;
75628;SDS011;64213;46.452;16.994;2023-06-22T09:31:45;17.75;;;12.70;;
75628;SDS011;64213;46.452;16.994;2023-06-22T09:34:47;19.58;;;12.63;;
75628;SDS011;64213;46.452;16.994;2023-06-22T09:37:49;19.33;;;12.23;;
75628;SDS011;64213;46.452;16.994;2023-06-22T09:40:54;16.52;;;11.05;;
75628;SDS011;64213;46.452;16.994;2023-06-22T09:43:56;15.95;;;11.95;;
75628;SDS011;64213;46.452;16.994;2023-06-22T09:46:59;18.98;;;12.13;;
75628;SDS011;64213;46.452;16.994;2023-06-22T09:50:02;16.48;;;12.10;;
75628;SDS011;64213;46.452;16.994;2023-06-22T09:53:04;15.00;;;10.60;;
75628;SDS011;64213;46.452;16.994;2023-06-22T09:56:06;19.23;;;10.80;;
75628;SDS011;64213;46.452;16.994;2023-06-22T09:59:08;15.27;;;10.63;;
75628;SDS011;64213;46.452;16.994;2023-06-22T10:02:19;17.37;;;10.68;;
75628;SDS011;64213;46.452;16.994;2023-06-22T10:05:22;14.95;;;10.90;;
75628;SDS011;64213;46.452;16.994;2023-06-22T10:08:24;16.50;;;10.37;;
75628;SDS011;64213;46.452;16.994;2023-06-22T10:11:26;15.45;;;11.02;;
75628;SDS011;64213;46.452;16.994;2023-06-22T10:14:31;17.25;;;10.40;;
75628;SDS011;64213;46.452;16.994;2023-06-22T10:17:34;16.67;;;10.90;;
75628;SDS011;64213;46.452;16.994;2023-06-22T10:20:36;18.20;;;11.68;;
75628;SDS011;64213;46.452;16.994;2023-06-22T10:23:39;15.97;;;10.33;;
75628;SDS011;64213;46.452;16.994;2023-06-22T10:26:41;17.00;;;10.20;;
75628;SDS011;64213;46.452;16.994;2023-06-22T10:29:43;19.10;;;10.20;;
75628;SDS011;64213;46.452;16.994;2023-06-22T10:32:46;15.68;;;10.00;;
75628;SDS011;64213;46.452;16.994;2023-06-22T10:35:48;19.37;;;11.15;;
75628;SDS011;64213;46.452;16.994;2023-06-22T10:38:50;14.90;;;10.47;;
75628;SDS011;64213;46.452;16.994;2023-06-22T10:41:54;20.75;;;11.95;;
75628;SDS011;64213;46.452;16.994;2023-06-22T10:44:57;15.38;;;10.80;;
75628;SDS011;64213;46.452;16.994;2023-06-22T10:48:00;15.88;;;10.63;;
75628;SDS011;64213;46.452;16.994;2023-06-22T10:51:02;15.68;;;11.10;;
75628;SDS011;64213;46.452;16.994;2023-06-22T10:54:04;19.43;;;11.60;;
75628;SDS011;64213;46.452;16.994;2023-06-22T10:57:06;18.05;;;11.12;;
75628;SDS011;64213;46.452;16.994;2023-06-22T11:00:09;15.80;;;10.93;;
75628;SDS011;64213;46.452;16.994;2023-06-22T11:03:13;17.52;;;10.45;;
75628;SDS011;64213;46.452;16.994;2023-06-22T11:06:16;17.58;;;11.63;;
75628;SDS011;64213;46.452;16.994;2023-06-22T11:09:18;14.83;;;10.30;;
75628;SDS011;64213;46.452;16.994;2023-06-22T11:12:30;16.52;;;11.15;;
75628;SDS011;64213;46.452;16.994;2023-06-22T11:15:32;19.05;;;11.10;;
75628;SDS011;64213;46.452;16.994;2023-06-22T11:18:34;15.27;;;11.40;;
75628;SDS011;64213;46.452;16.994;2023-06-22T11:21:36;18.20;;;11.10;;
75628;SDS011;64213;46.452;16.994;2023-06-22T11:24:38;16.70;;;11.93;;
75628;SDS011;64213;46.452;16.994;2023-06-22T11:27:41;17.27;;;11.05;;
75628;SDS011;64213;46.452;16.994;2023-06-22T11:30:43;15.73;;;11.93;;
75628;SDS011;64213;46.452;16.994;2023-06-22T11:33:45;17.48;;;12.40;;
75628;SDS011;64213;46.452;16.994;2023-06-22T11:36:48;16.75;;;12.10;;
75628;SDS011;64213;46.452;16.994;2023-06-22T11:39:50;15.47;;;10.83;;
75628;SDS011;64213;46.452;16.994;2023-06-22T11:43:07;16.52;;;11.35;;
75628;SDS011;64213;46.452;16.994;2023-06-22T11:46:09;15.38;;;10.38;;
75628;SDS011;64213;46.452;16.994;2023-06-22T11:49:11;17.23;;;11.18;;
75628;SDS011;64213;46.452;16.994;2023-06-22T11:52:14;15.70;;;11.48;;
75628;SDS011;64213;46.452;16.994;2023-06-22T11:55:16;15.00;;;9.53;;
75628;SDS011;64213;46.452;16.994;2023-06-22T11:58:19;15.55;;;11.15;;
75628;SDS011;64213;46.452;16.994;2023-06-22T12:01:21;15.70;;;11.15;;
75628;SDS011;64213;46.452;16.994;2023-06-22T12:04:23;15.77;;;10.93;;
75628;SDS011;64213;46.452;16.994;2023-06-22T12:07:25;16.45;;;11.57;;
75628;SDS011;64213;46.452;16.994;2023-06-22T12:10:27;16.47;;;11.47;;
75628;SDS011;64213;46.452;16.994;2023-06-22T12:13:33;14.75;;;10.88;;
75628;SDS011;64213;46.452;16.994;2023-06-22T12:16:35;15.57;;;11.77;;
75628;SDS011;64213;46.452;16.994;2023-06-22T12:19:37;16.73;;;11.45;;
75628;SDS011;64213;46.452;16.994;2023-06-22T12:22:40;15.82;;;10.60;;
75628;SDS011;64213;46.452;16.994;2023-06-22T12:25:44;20.83;;;12.00;;
75628;SDS011;64213;46.452;16.994;2023-06-22T12:28:47;16.67;;;11.63;;
75628;SDS011;64213;46.452;16.994;2023-06-22T12:31:49;16.60;;;11.02;;
75628;SDS011;64213;46.452;16.994;2023-06-22T12:34:51;16.70;;;11.55;;
75628;SDS011;64213;46.452;16.994;2023-06-22T12:37:54;14.82;;;10.25;;
75628;SDS011;64213;46.452;16.994;2023-06-22T12:40:56;16.70;;;10.40;;
75628;SDS011;64213;46.452;16.994;2023-06-22T12:43:58;16.65;;;10.65;;
75628;SDS011;64213;46.452;16.994;2023-06-22T12:47:00;16.20;;;10.45;;
75628;SDS011;64213;46.452;16.994;2023-06-22T12:50:03;17.55;;;10.77;;
75628;SDS011;64213;46.452;16.994;2023-06-22T12:53:06;16.95;;;11.07;;
75628;SDS011;64213;46.452;16.994;2023-06-22T12:56:08;17.13;;;11.50;;
75628;SDS011;64213;46.452;16.994;2023-06-22T12:59:11;16.40;;;11.00;;
75628;SDS011;64213;46.452;16.994;2023-06-22T13:02:13;16.92;;;11.68;;
75628;SDS011;64213;46.452;16.994;2023-06-22T13:05:15;15.63;;;11.15;;
75628;SDS011;64213;46.452;16.994;2023-06-22T13:08:17;16.23;;;11.00;;
75628;SDS011;64213;46.452;16.994;2023-06-22T13:11:20;16.23;;;10.67;;
75628;SDS011;64213;46.452;16.994;2023-06-22T13:14:22;17.00;;;10.85;;
75628;SDS011;64213;46.452;16.994;2023-06-22T13:17:24;16.83;;;10.65;;
75628;SDS011;64213;46.452;16.994;2023-06-22T13:20:28;16.08;;;10.48;;
75628;SDS011;64213;46.452;16.994;2023-06-22T13:23:30;14.98;;;10.30;;
75628;SDS011;64213;46.452;16.994;2023-06-22T13:26:33;16.30;;;11.20;;
75628;SDS011;64213;46.452;16.994;2023-06-22T13:29:35;16.62;;;10.80;;
75628;SDS011;64213;46.452;16.994;2023-06-22T13:32:37;18.27;;;10.82;;
75628;SDS011;64213;46.452;16.994;2023-06-22T13:35:39;16.02;;;10.48;;
75628;SDS011;64213;46.452;16.994;2023-06-22T13:38:44;19.23;;;11.43;;
75628;SDS011;64213;46.452;16.994;2023-06-22T13:41:46;16.10;;;10.70;;
75628;SDS011;64213;46.452;16.994;2023-06-22T13:44:48;18.50;;;11.60;;
75628;SDS011;64213;46.452;16.994;2023-06-22T13:47:51;14.30;;;11.40;;
75628;SDS011;64213;46.452;16.994;2023-06-22T13:50:53;17.30;;;11.60;;
75628;SDS011;64213;46.452;16.994;2023-06-22T13:53:55;18.12;;;11.05;;
75628;SDS011;64213;46.452;16.994;2023-06-22T13:56:57;18.23;;;11.40;;
75628;SDS011;64213;46.452;16.994;2023-06-22T14:00:00;16.62;;;10.55;;
75628;SDS011;64213;46.452;16.994;2023-06-22T14:03:02;16.48;;;10.40;;
75628;SDS011;64213;46.452;16.994;2023-06-22T14:06:05;12.90;;;9.93;;
75628;SDS011;64213;46.452;16.994;2023-06-22T14:09:08;20.00;;;11.10;;
75628;SDS011;64213;46.452;16.994;2023-06-22T14:12:11;14.30;;;10.20;;
75628;SDS011;64213;46.452;16.994;2023-06-22T14:15:13;17.12;;;10.50;;
75628;SDS011;64213;46.452;16.994;2023-06-22T14:18:15;15.63;;;10.65;;
75628;SDS011;64213;46.452;16.994;2023-06-22T14:21:18;16.15;;;11.35;;
75628;SDS011;64213;46.452;16.994;2023-06-22T14:24:20;16.05;;;10.68;;
75628;SDS011;64213;46.452;16.994;2023-06-22T14:27:26;14.93;;;10.07;;
75628;SDS011;64213;46.452;16.994;2023-06-22T14:30:28;15.88;;;10.60;;
75628;SDS011;64213;46.452;16.994;2023-06-22T14:33:31;15.70;;;10.93;;
75628;SDS011;64213;46.452;16.994;2023-06-22T14:36:33;23.83;;;11.63;;
75628;SDS011;64213;46.452;16.994;2023-06-22T14:39:35;19.12;;;10.95;;
75628;SDS011;64213;46.452;16.994;2023-06-22T14:42:37;15.47;;;10.83;;
75628;SDS011;64213;46.452;16.994;2023-06-22T14:45:41;14.45;;;10.57;;
75628;SDS011;64213;46.452;16.994;2023-06-22T14:48:43;17.62;;;11.10;;
75628;SDS011;64213;46.452;16.994;2023-06-22T14:51:45;14.45;;;9.75;;
75628;SDS011;64213;46.452;16.994;2023-06-22T14:54:48;18.70;;;11.10;;
75628;SDS011;64213;46.452;16.994;2023-06-22T14:57:50;21.77;;;13.23;;
75628;SDS011;64213;46.452;16.994;2023-06-22T15:00:52;13.68;;;8.40;;
75628;SDS011;64213;46.452;16.994;2023-06-22T15:03:55;15.15;;;10.10;;
75628;SDS011;64213;46.452;16.994;2023-06-22T15:06:57;17.23;;;9.80;;
75628;SDS011;64213;46.452;16.994;2023-06-22T15:09:59;16.45;;;9.45;;
75628;SDS011;64213;46.452;16.994;2023-06-22T15:13:02;17.83;;;9.40;;
75628;SDS011;64213;46.452;16.994;2023-06-22T15:16:04;14.77;;;9.43;;
75628;SDS011;64213;46.452;16.994;2023-06-22T15:19:06;17.98;;;10.23;;
75628;SDS011;64213;46.452;16.994;2023-06-22T15:22:08;15.88;;;10.05;;
75628;SDS011;64213;46.452;16.994;2023-06-22T15:25:11;16.17;;;9.70;;
75628;SDS011;64213;46.452;16.994;2023-06-22T15:28:13;17.30;;;9.93;;
75628;SDS011;64213;46.452;16.994;2023-06-22T15:31:16;15.52;;;9.07;;
75628;SDS011;64213;46.452;16.994;2023-06-22T15:34:18;17.30;;;10.15;;
75628;SDS011;64213;46.452;16.994;2023-06-22T15:37:21;21.52;;;9.68;;
75628;SDS011;64213;46.452;16.994;2023-06-22T15:40:23;19.98;;;10.30;;
75628;SDS011;64213;46.452;16.994;2023-06-22T15:43:25;14.40;;;9.13;;
75628;SDS011;64213;46.452;16.994;2023-06-22T15:46:27;18.42;;;10.05;;
75628;SDS011;64213;46.452;16.994;2023-06-22T15:49:30;17.15;;;9.13;;
75628;SDS011;64213;46.452;16.994;2023-06-22T15:52:32;16.60;;;9.70;;
75628;SDS011;64213;46.452;16.994;2023-06-22T15:55:34;17.08;;;10.18;;
75628;SDS011;64213;46.452;16.994;2023-06-22T15:58:37;17.93;;;10.40;;
75628;SDS011;64213;46.452;16.994;2023-06-22T16:01:40;19.12;;;10.88;;
75628;SDS011;64213;46.452;16.994;2023-06-22T16:04:42;17.27;;;10.63;;
75628;SDS011;64213;46.452;16.994;2023-06-22T16:07:45;16.30;;;9.90;;
75628;SDS011;64213;46.452;16.994;2023-06-22T16:10:47;19.10;;;9.55;;
75628;SDS011;64213;46.452;16.994;2023-06-22T16:13:49;18.43;;;10.13;;
75628;SDS011;64213;46.452;16.994;2023-06-22T16:16:51;18.92;;;11.23;;
75628;SDS011;64213;46.452;16.994;2023-06-22T16:19:54;20.23;;;10.73;;
75628;SDS011;64213;46.452;16.994;2023-06-22T16:22:57;20.12;;;10.40;;
75628;SDS011;64213;46.452;16.994;2023-06-22T16:25:59;21.10;;;10.50;;
75628;SDS011;64213;46.452;16.994;2023-06-22T16:29:01;15.33;;;9.67;;
75628;SDS011;64213;46.452;16.994;2023-06-22T16:32:05;18.37;;;10.13;;
75628;SDS011;64213;46.452;16.994;2023-06-22T16:35:08;15.80;;;9.50;;
75628;SDS011;64213;46.452;16.994;2023-06-22T16:38:11;16.42;;;10.10;;
75628;SDS011;64213;46.452;16.994;2023-06-22T16:41:13;15.43;;;9.32;;
75628;SDS011;64213;46.452;16.994;2023-06-22T16:44:16;17.07;;;10.10;;
75628;SDS011;64213;46.452;16.994;2023-06-22T16:47:19;17.73;;;10.20;;
75628;SDS011;64213;46.452;16.994;2023-06-22T16:50:21;16.10;;;9.40;;
75628;SDS011;64213;46.452;16.994;2023-06-22T16:53:23;17.33;;;10.10;;
75628;SDS011;64213;46.452;16.994;2023-06-22T16:56:26;17.27;;;9.85;;
75628;SDS011;64213;46.452;16.994;2023-06-22T16:59:29;15.83;;;9.67;;
75628;SDS011;64213;46.452;16.994;2023-06-22T17:02:31;17.65;;;9.60;;
75628;SDS011;64213;46.452;16.994;2023-06-22T17:05:37;19.30;;;9.70;;
75628;SDS011;64213;46.452;16.994;2023-06-22T17:08:39;17.73;;;9.65;;
75628;SDS011;64213;46.452;16.994;2023-06-22T17:11:44;17.40;;;9.77;;
75628;SDS011;64213;46.452;16.994;2023-06-22T17:14:47;16.97;;;9.80;;
75628;SDS011;64213;46.452;16.994;2023-06-22T17:17:49;18.52;;;10.40;;
75628;SDS011;64213;46.452;16.994;2023-06-22T17:20:54;17.62;;;9.88;;
75628;SDS011;64213;46.452;16.994;2023-06-22T17:23:56;20.15;;;10.30;;
75628;SDS011;64213;46.452;16.994;2023-06-22T17:27:00;21.17;;;10.45;;
75628;SDS011;64213;46.452;16.994;2023-06-22T17:30:06;15.50;;;9.97;;
75628;SDS011;64213;46.452;16.994;2023-06-22T17:33:16;17.90;;;10.18;;
75628;SDS011;64213;46.452;16.994;2023-06-22T17:36:20;20.83;;;10.35;;
75628;SDS011;64213;46.452;16.994;2023-06-22T17:39:23;17.85;;;9.20;;
75628;SDS011;64213;46.452;16.994;2023-06-22T17:42:27;16.85;;;10.02;;
75628;SDS011;64213;46.452;16.994;2023-06-22T17:45:30;18.33;;;10.60;;
75628;SDS011;64213;46.452;16.994;2023-06-22T17:48:33;16.87;;;10.15;;
75628;SDS011;64213;46.452;16.994;2023-06-22T17:51:36;16.90;;;10.55;;